Time;durP1;ratioP1;P1;durP2;ratioP2;P2;SDS_P1;SDS_P2;PMS_P1;PMS_P2;Temp;Humidity;BMP_temperature;BMP_pressure;BME280_temperature;BME280_humidity;BME280_pressure;Samples;Min_cycle;Max_cycle;Signal;HPM_P1;HPM_P2
2023/12/22 00:01:41;;;;;;;;;;;6.70;99.90;;;;;;8444682;28;19927;-71
2023/12/22 00:16:06;;;;;;;;;;;6.80;99.90;;;;;;8435671;28;20401;-71
2023/12/22 00:35:45;;;;;;;;;;;6.90;99.90;;;;;;8431105;28;20444;-71
2023/12/22 00:39:47;;;;;;;;;;;6.80;99.90;;;;;;8422974;28;19924;-71
2023/12/22 00:43:51;;;;;;;;;;;6.70;99.90;;;;;;8434389;28;21578;-71
2023/12/22 00:47:52;;;;;;;;;;;6.60;99.90;;;;;;8426588;28;19985;-71
2023/12/22 00:51:54;;;;;;;;;;;6.40;99.90;;;;;;8439779;28;19935;-71
2023/12/22 00:55:56;;;;;;;;;;;6.30;99.90;;;;;;8430195;28;19931;-71
2023/12/22 00:59:58;;;;;;;;;;;6.10;99.90;;;;;;8439712;28;19930;-71
2023/12/22 01:03:59;;;;;;;;;;;6.10;99.90;;;;;;8434609;28;19956;-71
2023/12/22 01:08:01;;;;;;;;;;;6.00;99.90;;;;;;8439226;28;19924;-71
2023/12/22 01:12:07;;;;;;;;;;;6.00;99.90;;;;;;8428714;28;19931;-71
2023/12/22 01:16:09;;;;;;;;;;;6.00;99.90;;;;;;8431625;28;20055;-71
2023/12/22 01:20:10;;;;;;;;;;;6.00;99.90;;;;;;8436842;28;19942;-71
2023/12/22 01:24:12;;;;;;;;;;;6.00;99.90;;;;;;8428609;28;19924;-71
2023/12/22 01:28:14;;;;;;;;;;;6.00;99.90;;;;;;8442070;28;19931;-71
2023/12/22 01:32:15;;;;;;;;;;;6.00;99.90;;;;;;8439856;28;19924;-71
2023/12/22 01:36:17;;;;;;;;;;;6.00;99.90;;;;;;8430272;28;19931;-71
2023/12/22 01:50:45;;;;;;;;;;;6.10;99.90;;;;;;8423603;28;19923;-71
2023/12/22 01:54:46;;;;;;;;;;;6.20;99.90;;;;;;8444569;28;19928;-71
2023/12/22 01:58:50;;;;;;;;;;;6.20;99.90;;;;;;8428817;28;20395;-71
2023/12/22 02:02:52;;;;;;;;;;;6.20;99.90;;;;;;8431553;28;19973;-71
2023/12/22 02:06:54;;;;;;;;;;;6.20;99.90;;;;;;8436902;28;19927;-71
2023/12/22 02:10:55;;;;;;;;;;;6.20;99.90;;;;;;8431075;28;19924;-71
2023/12/22 02:14:57;;;;;;;;;;;6.20;99.90;;;;;;8430877;28;20301;-71
2023/12/22 02:19:04;;;;;;;;;;;6.10;99.90;;;;;;8437447;28;19982;-71
2023/12/22 02:23:05;;;;;;;;;;;6.10;99.90;;;;;;8431911;28;19930;-71
2023/12/22 02:27:13;;;;;;;;;;;6.10;99.90;;;;;;8430720;28;19985;-71
2023/12/22 02:31:27;;;;;;;;;;;6.10;99.90;;;;;;8424964;28;19924;-71
2023/12/22 02:35:31;;;;;;;;;;;6.10;99.90;;;;;;8436095;28;19924;-71
2023/12/22 02:39:33;;;;;;;;;;;6.00;99.90;;;;;;8437874;28;19935;-71
2023/12/22 02:43:35;;;;;;;;;;;6.00;99.90;;;;;;8436012;28;19976;-71
2023/12/22 02:47:37;;;;;;;;;;;6.10;99.90;;;;;;8441784;28;19998;-71
2023/12/22 02:51:38;;;;;;;;;;;6.10;99.90;;;;;;8440023;28;20378;-71
2023/12/22 02:55:40;;;;;;;;;;;6.20;99.90;;;;;;8443594;28;19976;-71
2023/12/22 02:59:42;;;;;;;;;;;6.30;99.90;;;;;;8434861;28;19924;-71
2023/12/22 03:03:43;;;;;;;;;;;6.40;99.90;;;;;;8441653;28;20371;-71
2023/12/22 03:07:45;;;;;;;;;;;6.50;99.90;;;;;;8436834;28;19928;-71
2023/12/22 03:11:47;;;;;;;;;;;6.60;99.90;;;;;;8455256;28;19939;-71
2023/12/22 03:15:49;;;;;;;;;;;6.60;99.90;;;;;;8450417;28;19924;-71
2023/12/22 03:19:51;;;;;;;;;;;6.80;99.90;;;;;;8442818;28;19928;-71
2023/12/22 03:23:52;;;;;;;;;;;6.90;99.90;;;;;;8435072;28;20387;-71
2023/12/22 03:27:54;;;;;;;;;;;6.90;99.90;;;;;;8439179;28;19924;-71
2023/12/22 03:31:56;;;;;;;;;;;7.00;99.90;;;;;;8449175;28;19924;-71
2023/12/22 03:35:57;;;;;;;;;;;7.00;99.90;;;;;;8442365;28;19924;-71
2023/12/22 03:39:59;;;;;;;;;;;7.10;99.90;;;;;;8442856;28;19924;-71
2023/12/22 03:44:01;;;;;;;;;;;7.20;99.90;;;;;;8441948;28;19976;-71
2023/12/22 03:48:03;;;;;;;;;;;7.30;99.90;;;;;;8433161;28;19923;-71
2023/12/22 03:52:04;;;;;;;;;;;7.40;99.90;;;;;;8465630;27;19927;-71
2023/12/22 03:56:09;;;;;;;;;;;7.40;99.90;;;;;;8448868;28;19928;-71
2023/12/22 04:00:11;;;;;;;;;;;7.50;99.90;;;;;;8433935;28;19966;-71
2023/12/22 04:04:13;;;;;;;;;;;7.60;99.90;;;;;;8471227;27;19928;-71
2023/12/22 04:08:15;;;;;;;;;;;7.70;99.90;;;;;;8437563;28;19924;-71
2023/12/22 04:12:16;;;;;;;;;;;7.80;99.90;;;;;;8429916;28;19954;-71
2023/12/22 04:16:18;;;;;;;;;;;7.80;99.90;;;;;;8447244;28;19928;-71
2023/12/22 04:20:20;;;;;;;;;;;7.90;99.90;;;;;;8430477;28;19950;-71
2023/12/22 04:24:21;;;;;;;;;;;7.90;99.90;;;;;;8450294;28;19979;-71
2023/12/22 04:28:23;;;;;;;;;;;7.90;99.90;;;;;;8439403;28;19935;-71
2023/12/22 04:32:25;;;;;;;;;;;7.90;99.90;;;;;;8441496;28;19924;-71
2023/12/22 04:36:26;;;;;;;;;;;7.90;99.90;;;;;;8433373;28;19924;-71
2023/12/22 04:40:28;;;;;;;;;;;7.90;99.90;;;;;;8428295;28;20282;-71
2023/12/22 04:44:30;;;;;;;;;;;7.90;99.90;;;;;;8430532;28;19947;-71
2023/12/22 04:48:33;;;;;;;;;;;8.00;99.90;;;;;;8443210;28;20407;-72
2023/12/22 04:52:34;;;;;;;;;;;8.00;99.90;;;;;;8447812;28;19928;-71
2023/12/22 04:56:36;;;;;;;;;;;8.00;99.90;;;;;;8440225;28;19963;-71
2023/12/22 05:00:38;;;;;;;;;;;7.90;99.90;;;;;;8437247;28;19935;-71
2023/12/22 05:04:40;;;;;;;;;;;8.00;99.90;;;;;;8427724;28;19958;-71
2023/12/22 05:08:41;;;;;;;;;;;8.00;99.90;;;;;;8435025;28;19932;-71
2023/12/22 05:12:43;;;;;;;;;;;8.00;99.90;;;;;;8424918;28;19924;-71
2023/12/22 05:16:44;;;;;;;;;;;8.00;99.90;;;;;;8436447;28;19928;-71
2023/12/22 05:20:46;;;;;;;;;;;8.10;99.90;;;;;;8422967;28;19978;-71
2023/12/22 05:24:48;;;;;;;;;;;8.10;99.90;;;;;;8421616;28;19924;-71
2023/12/22 05:28:50;;;;;;;;;;;8.10;99.90;;;;;;8422791;28;19924;-71
2023/12/22 05:32:52;;;;;;;;;;;8.10;99.90;;;;;;8432290;28;20043;-71
2023/12/22 05:36:53;;;;;;;;;;;8.10;99.90;;;;;;8427438;28;19923;-71
2023/12/22 05:40:55;;;;;;;;;;;8.20;99.90;;;;;;8426596;28;19951;-71
2023/12/22 05:44:58;;;;;;;;;;;8.20;99.90;;;;;;8437146;28;20052;-71
2023/12/22 05:49:00;;;;;;;;;;;8.20;99.90;;;;;;8433461;28;19931;-71
2023/12/22 05:53:02;;;;;;;;;;;8.20;99.90;;;;;;8461230;27;19978;-71
2023/12/22 05:57:06;;;;;;;;;;;8.20;99.90;;;;;;8416132;28;20028;-71
2023/12/22 06:01:08;;;;;;;;;;;8.30;99.90;;;;;;8414179;28;19969;-71
2023/12/22 06:05:09;;;;;;;;;;;8.30;99.90;;;;;;8415861;28;19928;-71
2023/12/22 06:09:12;;;;;;;;;;;8.30;99.90;;;;;;8426537;28;19932;-71
2023/12/22 06:13:14;;;;;;;;;;;8.30;99.90;;;;;;8427441;28;19924;-71
2023/12/22 06:17:16;;;;;;;;;;;8.30;99.90;;;;;;8422780;28;19925;-71
2023/12/22 06:21:18;;;;;;;;;;;8.40;99.90;;;;;;8425234;28;19932;-71
2023/12/22 06:25:20;;;;;;;;;;;8.40;99.90;;;;;;8425891;28;19925;-71
2023/12/22 06:29:21;;;;;;;;;;;8.40;99.90;;;;;;8430024;28;20277;-71
2023/12/22 06:33:23;;;;;;;;;;;8.40;99.90;;;;;;8426139;28;20245;-71
2023/12/22 06:37:25;;;;;;;;;;;8.50;99.90;;;;;;8430613;28;19973;-71
2023/12/22 06:41:28;;;;;;;;;;;8.50;99.90;;;;;;8433216;28;19930;-71
2023/12/22 06:45:30;;;;;;;;;;;8.50;99.90;;;;;;8429244;28;19932;-71
2023/12/22 06:49:32;;;;;;;;;;;8.50;99.90;;;;;;8426674;28;19989;-71
2023/12/22 06:53:34;;;;;;;;;;;8.60;99.90;;;;;;8421176;28;20005;-71
2023/12/22 06:57:35;;;;;;;;;;;8.60;99.90;;;;;;8439278;28;20010;-71
2023/12/22 07:01:38;;;;;;;;;;;8.60;99.90;;;;;;8431344;28;19977;-71
2023/12/22 07:05:40;;;;;;;;;;;8.70;99.90;;;;;;8426299;28;20401;-71
2023/12/22 07:09:41;;;;;;;;;;;8.70;99.90;;;;;;8431387;28;20580;-71
2023/12/22 07:13:43;;;;;;;;;;;8.70;99.90;;;;;;8438250;28;19935;-71
2023/12/22 07:17:45;;;;;;;;;;;8.70;99.90;;;;;;8430759;28;19928;-71
2023/12/22 07:21:47;;;;;;;;;;;8.70;99.90;;;;;;8433328;28;19930;-71
2023/12/22 07:25:49;;;;;;;;;;;8.80;99.90;;;;;;8433687;28;20379;-71
2023/12/22 07:29:50;;;;;;;;;;;8.80;99.90;;;;;;8440920;28;19924;-71
2023/12/22 07:33:52;;;;;;;;;;;8.80;99.90;;;;;;8438251;28;19930;-71
2023/12/22 07:37:54;;;;;;;;;;;8.80;99.90;;;;;;8427096;28;20357;-71
2023/12/22 07:41:57;;;;;;;;;;;8.90;99.90;;;;;;8432560;28;19924;-71
2023/12/22 07:45:59;;;;;;;;;;;8.80;99.90;;;;;;8427374;28;19934;-71
2023/12/22 07:50:00;;;;;;;;;;;8.60;99.90;;;;;;8440482;28;19943;-71
2023/12/22 07:54:04;;;;;;;;;;;8.50;99.90;;;;;;8434420;28;19924;-71
2023/12/22 07:58:07;;;;;;;;;;;8.40;99.90;;;;;;8464248;27;19928;-71
2023/12/22 08:02:09;;;;;;;;;;;8.40;99.90;;;;;;8435964;28;19955;-71
2023/12/22 08:06:10;;;;;;;;;;;8.40;99.90;;;;;;8433855;28;19924;-71
2023/12/22 08:10:13;;;;;;;;;;;8.40;99.90;;;;;;8428635;28;20334;-71
2023/12/22 08:14:14;;;;;;;;;;;8.50;99.90;;;;;;8439806;28;19931;-71
2023/12/22 08:18:16;;;;;;;;;;;8.60;99.90;;;;;;8440404;28;19938;-71
2023/12/22 08:22:18;;;;;;;;;;;8.70;99.90;;;;;;8449493;28;20405;-71
2023/12/22 08:26:21;;;;;;;;;;;8.60;99.90;;;;;;8433610;28;19970;-71
2023/12/22 08:30:24;;;;;;;;;;;8.50;99.90;;;;;;8428499;28;19928;-71
2023/12/22 08:34:26;;;;;;;;;;;8.30;99.90;;;;;;8444964;28;19924;-71
2023/12/22 08:38:27;;;;;;;;;;;8.30;99.90;;;;;;8449569;28;19931;-71
2023/12/22 08:42:30;;;;;;;;;;;8.30;99.90;;;;;;8455720;28;19924;-71
2023/12/22 08:46:32;;;;;;;;;;;8.30;99.90;;;;;;8457204;28;19928;-72
2023/12/22 08:50:34;;;;;;;;;;;8.30;99.90;;;;;;8442520;28;19924;-71
2023/12/22 08:54:36;;;;;;;;;;;8.30;99.90;;;;;;8443740;28;20039;-71
2023/12/22 08:58:37;;;;;;;;;;;8.40;99.90;;;;;;8435647;28;19924;-71
2023/12/22 09:02:39;;;;;;;;;;;8.50;99.90;;;;;;8449149;28;20363;-71
2023/12/22 09:06:42;;;;;;;;;;;8.60;99.90;;;;;;8445772;28;19927;-71
2023/12/22 09:10:45;;;;;;;;;;;8.60;99.90;;;;;;8439206;28;20260;-71
2023/12/22 09:14:46;;;;;;;;;;;8.70;99.90;;;;;;8464023;27;19928;-71
2023/12/22 09:18:49;;;;;;;;;;;8.70;99.90;;;;;;8433195;28;19931;-72
2023/12/22 09:22:51;;;;;;;;;;;8.60;99.90;;;;;;8436880;28;19931;-71
2023/12/22 09:26:53;;;;;;;;;;;8.60;99.90;;;;;;8446044;28;19931;-71
2023/12/22 09:30:54;;;;;;;;;;;8.70;99.90;;;;;;8452000;28;19977;-71
2023/12/22 09:34:58;;;;;;;;;;;8.70;99.90;;;;;;8428339;28;19977;-71
2023/12/22 09:39:00;;;;;;;;;;;8.70;99.90;;;;;;8437073;28;19947;-71
2023/12/22 09:43:02;;;;;;;;;;;8.70;99.90;;;;;;8443866;28;19976;-71
2023/12/22 09:47:05;;;;;;;;;;;8.80;99.90;;;;;;8443490;28;20268;-71
2023/12/22 09:51:07;;;;;;;;;;;8.80;99.90;;;;;;8438227;28;19935;-71
2023/12/22 09:55:09;;;;;;;;;;;8.90;99.90;;;;;;8436469;28;20750;-71
2023/12/22 09:59:12;;;;;;;;;;;8.90;99.90;;;;;;8439355;28;19923;-71
2023/12/22 10:03:15;;;;;;;;;;;9.00;99.90;;;;;;8436268;28;19948;-71
2023/12/22 10:07:17;;;;;;;;;;;9.10;99.90;;;;;;8437844;28;20303;-71
2023/12/22 10:11:20;;;;;;;;;;;9.10;99.90;;;;;;8442177;28;19931;-71
2023/12/22 10:15:25;;;;;;;;;;;9.10;99.90;;;;;;8451416;28;19923;-71
2023/12/22 10:19:27;;;;;;;;;;;9.20;99.90;;;;;;8443788;28;20299;-71
2023/12/22 10:23:28;;;;;;;;;;;9.30;99.90;;;;;;8441853;28;19965;-71
2023/12/22 10:27:31;;;;;;;;;;;9.30;99.90;;;;;;8433755;28;19923;-71
2023/12/22 10:31:42;;;;;;;;;;;9.40;99.90;;;;;;8431126;28;19932;-71
2023/12/22 10:35:44;;;;;;;;;;;9.40;99.90;;;;;;8451871;28;19924;-71
2023/12/22 10:39:48;;;;;;;;;;;9.50;99.90;;;;;;8446508;28;20272;-71
2023/12/22 10:43:50;;;;;;;;;;;9.50;99.90;;;;;;8445416;28;19928;-71
2023/12/22 10:47:53;;;;;;;;;;;9.40;99.90;;;;;;8434838;28;20330;-72
2023/12/22 10:51:56;;;;;;;;;;;9.40;99.90;;;;;;8439947;28;19923;-71
2023/12/22 10:55:57;;;;;;;;;;;9.40;99.90;;;;;;8434871;28;20421;-71
2023/12/22 10:59:59;;;;;;;;;;;9.40;99.90;;;;;;8420187;28;19924;-71
2023/12/22 11:04:01;;;;;;;;;;;9.50;99.90;;;;;;8431575;28;20275;-71
2023/12/22 11:08:08;;;;;;;;;;;9.50;99.90;;;;;;8435575;28;19931;-71
2023/12/22 11:12:10;;;;;;;;;;;9.50;99.90;;;;;;8430643;28;20019;-71
2023/12/22 11:16:13;;;;;;;;;;;9.50;99.90;;;;;;8439974;28;19924;-71
2023/12/22 11:20:15;;;;;;;;;;;9.50;99.90;;;;;;8442654;28;19928;-71
2023/12/22 11:24:18;;;;;;;;;;;9.50;99.90;;;;;;8439394;28;19963;-71
2023/12/22 11:28:21;;;;;;;;;;;9.50;99.90;;;;;;8427667;28;19924;-71
2023/12/22 11:32:23;;;;;;;;;;;9.60;99.90;;;;;;8442701;28;20481;-71
2023/12/22 11:36:25;;;;;;;;;;;9.70;99.90;;;;;;8429110;28;19935;-71
2023/12/22 11:40:27;;;;;;;;;;;9.70;99.90;;;;;;8440629;28;19952;-71
2023/12/22 11:44:29;;;;;;;;;;;9.80;99.90;;;;;;8435752;28;19928;-71
2023/12/22 11:48:31;;;;;;;;;;;9.80;99.90;;;;;;8443848;28;19924;-71
2023/12/22 11:52:32;;;;;;;;;;;9.80;99.90;;;;;;8448734;28;19963;-71
2023/12/22 11:56:34;;;;;;;;;;;9.80;99.90;;;;;;8445172;28;19963;-71
2023/12/22 12:00:36;;;;;;;;;;;9.80;99.90;;;;;;8431215;28;19932;-71
2023/12/22 12:04:37;;;;;;;;;;;9.70;99.90;;;;;;8430007;28;19928;-71
2023/12/22 12:08:40;;;;;;;;;;;9.70;99.90;;;;;;8418985;28;20309;-71
2023/12/22 12:12:41;;;;;;;;;;;9.70;99.90;;;;;;8420152;28;19932;-71
2023/12/22 12:16:43;;;;;;;;;;;9.80;99.90;;;;;;8420635;28;19932;-72
2023/12/22 12:20:45;;;;;;;;;;;9.80;99.90;;;;;;8425348;28;19928;-71
2023/12/22 12:24:47;;;;;;;;;;;9.90;99.90;;;;;;8418704;28;19931;-71
2023/12/22 12:28:49;;;;;;;;;;;10.00;99.90;;;;;;8422318;28;19923;-71
2023/12/22 12:32:51;;;;;;;;;;;9.90;99.90;;;;;;8441443;28;20245;-71
2023/12/22 12:36:54;;;;;;;;;;;9.90;99.90;;;;;;8426548;28;19928;-71
2023/12/22 12:40:56;;;;;;;;;;;9.90;99.90;;;;;;8431875;28;19967;-71
2023/12/22 12:44:59;;;;;;;;;;;10.00;99.90;;;;;;8427573;28;19955;-71
2023/12/22 12:49:08;;;;;;;;;;;10.10;99.90;;;;;;8438212;28;20260;-72
2023/12/22 12:53:09;;;;;;;;;;;10.10;99.90;;;;;;8430133;28;19928;-71
2023/12/22 12:57:15;;;;;;;;;;;10.10;99.90;;;;;;8448140;28;20428;-71
2023/12/22 13:01:17;;;;;;;;;;;10.10;99.90;;;;;;8441603;28;19977;-71
2023/12/22 13:05:26;;;;;;;;;;;10.10;99.90;;;;;;8434749;28;19978;-71
2023/12/22 13:09:31;;;;;;;;;;;10.20;99.90;;;;;;8422043;28;19936;-71
2023/12/22 13:13:40;;;;;;;;;;;10.20;99.90;;;;;;8438385;28;19924;-71
2023/12/22 13:17:43;;;;;;;;;;;10.30;99.90;;;;;;8440295;28;20371;-71
2023/12/22 13:21:44;;;;;;;;;;;10.30;99.90;;;;;;8439269;28;19924;-71
2023/12/22 13:25:46;;;;;;;;;;;10.30;99.90;;;;;;8429679;28;19935;-71
2023/12/22 13:29:48;;;;;;;;;;;10.40;99.90;;;;;;8446008;28;19932;-71
2023/12/22 13:33:50;;;;;;;;;;;10.40;99.90;;;;;;8428251;28;19924;-71
2023/12/22 13:37:52;;;;;;;;;;;10.40;99.90;;;;;;8434934;28;19964;-72
2023/12/22 13:41:54;;;;;;;;;;;10.40;99.90;;;;;;8436649;28;19931;-71
2023/12/22 13:45:56;;;;;;;;;;;10.30;99.90;;;;;;8452794;28;20228;-71
2023/12/22 13:49:58;;;;;;;;;;;10.30;99.90;;;;;;8435877;28;19929;-71
2023/12/22 13:54:00;;;;;;;;;;;10.30;99.90;;;;;;8423102;28;19928;-71
2023/12/22 13:58:02;;;;;;;;;;;10.40;99.90;;;;;;8447143;28;19924;-71
2023/12/22 14:02:04;;;;;;;;;;;10.50;99.90;;;;;;8428066;28;19924;-71
2023/12/22 14:06:08;;;;;;;;;;;10.50;99.90;;;;;;8431125;28;19924;-71
2023/12/22 14:10:11;;;;;;;;;;;10.50;99.90;;;;;;8432201;28;19939;-72
2023/12/22 14:14:12;;;;;;;;;;;10.60;99.90;;;;;;8422816;28;19924;-71
2023/12/22 14:18:14;;;;;;;;;;;10.60;99.90;;;;;;8441250;28;19954;-71
2023/12/22 14:22:16;;;;;;;;;;;10.60;99.90;;;;;;8435318;28;20363;-71
2023/12/22 14:26:18;;;;;;;;;;;10.60;99.90;;;;;;8440271;28;20043;-71
2023/12/22 14:30:20;;;;;;;;;;;10.60;99.90;;;;;;8431756;28;19935;-71
2023/12/22 14:34:21;;;;;;;;;;;10.60;99.90;;;;;;8421509;28;20022;-71
2023/12/22 14:38:23;;;;;;;;;;;10.60;99.90;;;;;;8435289;28;19928;-71
2023/12/22 14:42:25;;;;;;;;;;;10.50;99.90;;;;;;8438610;28;19931;-71
2023/12/22 14:46:27;;;;;;;;;;;10.40;99.90;;;;;;8428103;28;19932;-71
2023/12/22 14:50:29;;;;;;;;;;;10.50;99.90;;;;;;8431271;28;20015;-71
2023/12/22 14:54:31;;;;;;;;;;;10.50;99.90;;;;;;8434566;28;19924;-71
2023/12/22 14:58:32;;;;;;;;;;;10.50;99.90;;;;;;8424721;28;19927;-71
2023/12/22 15:02:34;;;;;;;;;;;10.30;99.90;;;;;;8439372;28;19925;-71
2023/12/22 15:06:40;;;;;;;;;;;10.20;99.90;;;;;;8428091;28;20360;-71
2023/12/22 15:10:42;;;;;;;;;;;10.10;99.90;;;;;;8429165;28;19955;-71
2023/12/22 15:14:44;;;;;;;;;;;10.10;99.90;;;;;;8430174;28;19980;-71
2023/12/22 15:18:46;;;;;;;;;;;10.00;99.90;;;;;;8429366;28;21285;-71
2023/12/22 15:22:48;;;;;;;;;;;10.00;99.90;;;;;;8439787;28;19925;-71
2023/12/22 15:26:50;;;;;;;;;;;10.00;99.90;;;;;;8431325;28;20175;-71
2023/12/22 15:30:52;;;;;;;;;;;10.00;99.90;;;;;;8433901;28;19924;-71
2023/12/22 15:34:54;;;;;;;;;;;10.00;99.90;;;;;;8430494;28;19988;-71
2023/12/22 15:38:55;;;;;;;;;;;10.00;99.90;;;;;;8420622;28;19924;-71
2023/12/22 15:42:57;;;;;;;;;;;10.00;99.90;;;;;;8438096;28;19973;-71
2023/12/22 15:46:59;;;;;;;;;;;10.10;99.90;;;;;;8433149;28;19993;-71
2023/12/22 15:51:07;;;;;;;;;;;10.00;99.90;;;;;;8424821;28;19924;-71
2023/12/22 15:55:09;;;;;;;;;;;10.00;99.90;;;;;;8444721;28;19932;-71
2023/12/22 15:59:11;;;;;;;;;;;10.00;99.90;;;;;;8427651;28;19958;-71
2023/12/22 16:03:12;;;;;;;;;;;10.10;99.90;;;;;;8423896;28;19932;-71
2023/12/22 16:07:14;;;;;;;;;;;10.10;99.90;;;;;;8398403;28;20014;-71
2023/12/22 16:11:18;;;;;;;;;;;10.20;99.90;;;;;;8431578;28;19924;-71
2023/12/22 16:15:20;;;;;;;;;;;10.20;99.90;;;;;;8399332;28;20330;-71
2023/12/22 16:19:22;;;;;;;;;;;10.30;99.90;;;;;;8454641;27;19925;-71
2023/12/22 16:23:25;;;;;;;;;;;10.30;99.90;;;;;;8430146;28;20001;-71
2023/12/22 16:27:27;;;;;;;;;;;10.40;99.90;;;;;;8432681;28;19928;-71
2023/12/22 16:31:28;;;;;;;;;;;10.40;99.90;;;;;;8417688;28;19931;-71
2023/12/22 16:35:30;;;;;;;;;;;10.30;99.90;;;;;;8424791;28;20015;-71
2023/12/22 16:39:32;;;;;;;;;;;10.20;99.90;;;;;;8425683;28;20402;-71
2023/12/22 16:43:35;;;;;;;;;;;10.10;99.90;;;;;;8431564;28;19971;-71
2023/12/22 16:47:38;;;;;;;;;;;10.10;99.90;;;;;;8428839;28;19926;-71
2023/12/22 16:51:40;;;;;;;;;;;10.00;99.90;;;;;;8438693;28;19939;-71
2023/12/22 16:55:41;;;;;;;;;;;9.90;99.90;;;;;;8441435;28;19952;-71
2023/12/22 16:59:43;;;;;;;;;;;9.80;99.90;;;;;;8445115;28;19985;-71
2023/12/22 17:03:45;;;;;;;;;;;9.80;99.90;;;;;;8431310;28;19934;-71
2023/12/22 17:07:46;;;;;;;;;;;9.70;99.90;;;;;;8430666;28;20356;-71
2023/12/22 17:11:48;;;;;;;;;;;9.60;99.90;;;;;;8423079;28;19925;-71
2023/12/22 17:15:50;;;;;;;;;;;9.60;99.90;;;;;;8418366;28;19928;-71
2023/12/22 17:19:52;;;;;;;;;;;9.60;99.90;;;;;;8413578;28;19997;-71
2023/12/22 17:23:53;;;;;;;;;;;9.60;99.90;;;;;;8456440;27;19932;-71
2023/12/22 17:27:55;;;;;;;;;;;9.60;99.90;;;;;;8436942;28;19971;-71
2023/12/22 17:31:57;;;;;;;;;;;9.60;99.90;;;;;;8421846;28;19924;-71
2023/12/22 17:35:59;;;;;;;;;;;9.60;99.90;;;;;;8418700;28;20331;-71
2023/12/22 17:40:01;;;;;;;;;;;9.60;99.90;;;;;;8434609;28;19924;-71
2023/12/22 17:44:03;;;;;;;;;;;9.70;99.90;;;;;;8416147;28;19924;-71
2023/12/22 17:48:05;;;;;;;;;;;9.70;99.90;;;;;;8415254;28;19924;-71
2023/12/22 17:52:07;;;;;;;;;;;9.80;99.90;;;;;;8423533;28;20018;-71
2023/12/22 17:56:09;;;;;;;;;;;9.80;99.90;;;;;;8441776;28;19948;-71
2023/12/22 18:00:10;;;;;;;;;;;9.80;99.90;;;;;;8443474;28;20279;-71
2023/12/22 18:04:12;;;;;;;;;;;9.90;99.90;;;;;;8438638;28;19988;-71
2023/12/22 18:08:14;;;;;;;;;;;10.00;99.90;;;;;;8438877;28;19928;-71
2023/12/22 18:12:16;;;;;;;;;;;10.00;99.90;;;;;;8435150;28;19932;-71
2023/12/22 18:16:18;;;;;;;;;;;10.00;99.90;;;;;;8435643;28;19928;-71
2023/12/22 18:20:22;;;;;;;;;;;10.00;99.90;;;;;;8435842;28;19984;-71
2023/12/22 18:24:24;;;;;;;;;;;10.00;99.90;;;;;;8446439;28;19924;-71
2023/12/22 18:28:25;;;;;;;;;;;10.00;99.90;;;;;;8434515;28;20375;-71
2023/12/22 18:32:27;;;;;;;;;;;10.10;99.90;;;;;;8421241;28;20029;-71
2023/12/22 18:36:29;;;;;;;;;;;10.10;99.90;;;;;;8437214;28;19961;-71
2023/12/22 18:40:30;;;;;;;;;;;10.10;99.90;;;;;;8431133;28;20348;-72
2023/12/22 18:44:33;;;;;;;;;;;10.10;99.90;;;;;;8419439;28;19924;-72
2023/12/22 18:48:34;;;;;;;;;;;10.10;99.90;;;;;;8425556;28;19951;-72
2023/12/22 18:52:36;;;;;;;;;;;10.10;99.90;;;;;;8422162;28;20427;-71
2023/12/22 18:56:38;;;;;;;;;;;10.20;99.90;;;;;;8423632;28;19970;-71
2023/12/22 19:00:40;;;;;;;;;;;10.20;99.90;;;;;;8425409;28;20515;-71
2023/12/22 19:04:41;;;;;;;;;;;10.20;99.90;;;;;;8437563;28;19932;-71
2023/12/22 19:08:43;;;;;;;;;;;10.20;99.90;;;;;;8424871;28;19963;-71
2023/12/22 19:12:46;;;;;;;;;;;10.10;99.90;;;;;;8428306;28;19924;-71
2023/12/22 19:16:48;;;;;;;;;;;10.00;99.90;;;;;;8426577;28;19969;-71
2023/12/22 19:20:50;;;;;;;;;;;10.00;99.90;;;;;;8433741;28;19946;-71
2023/12/22 19:24:54;;;;;;;;;;;10.00;99.90;;;;;;8421781;28;19932;-71
2023/12/22 19:28:55;;;;;;;;;;;10.10;99.90;;;;;;8438764;28;19927;-71
2023/12/22 19:32:57;;;;;;;;;;;9.90;99.90;;;;;;8423486;28;19931;-71
2023/12/22 19:36:59;;;;;;;;;;;9.50;99.90;;;;;;8438706;28;20379;-71
2023/12/22 19:41:00;;;;;;;;;;;8.90;99.90;;;;;;8435375;28;20283;-71
2023/12/22 19:45:03;;;;;;;;;;;8.60;99.90;;;;;;8423246;28;20342;-71
2023/12/22 19:59:39;;;;;;;;;;;8.20;99.90;;;;;;8407955;28;19919;-72
2023/12/22 20:03:41;;;;;;;;;;;8.20;99.90;;;;;;8438229;28;19928;-71
2023/12/22 20:07:43;;;;;;;;;;;8.20;99.90;;;;;;8470242;27;19924;-71
2023/12/22 20:11:45;;;;;;;;;;;8.20;99.90;;;;;;8440722;28;20294;-71
2023/12/22 20:15:47;;;;;;;;;;;8.20;99.90;;;;;;8428993;28;19924;-71
2023/12/22 20:19:49;;;;;;;;;;;8.10;99.90;;;;;;8443156;28;20272;-71
2023/12/22 20:23:54;;;;;;;;;;;8.10;99.90;;;;;;8436265;28;19977;-71
2023/12/22 20:27:56;;;;;;;;;;;8.10;99.90;;;;;;8438760;28;19930;-71
2023/12/22 20:31:58;;;;;;;;;;;8.10;99.90;;;;;;8428699;28;19938;-71
2023/12/22 20:36:00;;;;;;;;;;;8.10;99.90;;;;;;8436523;28;19950;-71
2023/12/22 20:40:02;;;;;;;;;;;8.10;99.90;;;;;;8445990;28;19931;-71
2023/12/22 20:44:03;;;;;;;;;;;8.10;99.90;;;;;;8434887;28;20295;-71
2023/12/22 20:48:05;;;;;;;;;;;8.10;99.90;;;;;;8438997;28;19932;-71
2023/12/22 20:52:08;;;;;;;;;;;8.10;99.90;;;;;;8455896;27;19932;-71
2023/12/22 20:56:16;;;;;;;;;;;8.10;99.90;;;;;;8431316;28;20401;-71
2023/12/22 21:00:18;;;;;;;;;;;8.10;99.90;;;;;;8431796;28;19927;-71
2023/12/22 21:04:20;;;;;;;;;;;8.00;99.90;;;;;;8433766;28;20310;-71
2023/12/22 21:08:22;;;;;;;;;;;8.00;99.90;;;;;;8436752;28;19931;-71
2023/12/22 21:12:23;;;;;;;;;;;8.00;99.90;;;;;;8429829;28;20054;-71
2023/12/22 21:16:25;;;;;;;;;;;8.00;99.90;;;;;;8438933;28;19924;-71
2023/12/22 21:20:27;;;;;;;;;;;8.00;99.90;;;;;;8438610;28;19969;-71
2023/12/22 21:24:29;;;;;;;;;;;8.00;99.90;;;;;;8421703;28;20031;-71
2023/12/22 21:28:30;;;;;;;;;;;8.00;99.90;;;;;;8425557;28;20295;-71
2023/12/22 21:32:32;;;;;;;;;;;8.00;99.90;;;;;;8429273;28;20020;-71
2023/12/22 21:36:34;;;;;;;;;;;8.00;99.90;;;;;;8426354;28;19924;-71
2023/12/22 21:40:36;;;;;;;;;;;8.00;99.90;;;;;;8435722;28;20419;-71
2023/12/22 21:44:41;;;;;;;;;;;8.00;99.90;;;;;;8429787;28;20292;-71
2023/12/22 21:48:42;;;;;;;;;;;8.00;99.90;;;;;;8437887;28;19928;-71
2023/12/22 21:52:44;;;;;;;;;;;8.00;99.90;;;;;;8438746;28;19924;-71
2023/12/22 21:56:46;;;;;;;;;;;8.00;99.90;;;;;;8432782;28;20376;-71
2023/12/22 22:00:47;;;;;;;;;;;8.00;99.90;;;;;;8435016;28;19932;-71
2023/12/22 22:04:49;;;;;;;;;;;8.00;99.90;;;;;;8433302;28;19931;-71
2023/12/22 22:08:51;;;;;;;;;;;8.00;99.90;;;;;;8452247;27;20026;-71
2023/12/22 22:12:53;;;;;;;;;;;8.00;99.90;;;;;;8457203;27;19925;-71
2023/12/22 22:16:54;;;;;;;;;;;8.00;99.90;;;;;;8427345;28;20501;-71
2023/12/22 22:20:56;;;;;;;;;;;8.00;99.90;;;;;;8415875;28;19932;-71
2023/12/22 22:24:58;;;;;;;;;;;8.00;99.90;;;;;;8432754;28;19935;-71
2023/12/22 22:29:00;;;;;;;;;;;8.00;99.90;;;;;;8430934;28;19931;-71
2023/12/22 22:33:04;;;;;;;;;;;7.90;99.90;;;;;;8423225;28;19924;-71
2023/12/22 22:37:06;;;;;;;;;;;7.90;99.90;;;;;;8426764;28;19931;-71
2023/12/22 22:41:09;;;;;;;;;;;7.80;99.90;;;;;;8426665;28;20357;-72
2023/12/22 22:45:11;;;;;;;;;;;7.80;99.90;;;;;;8420844;28;19924;-71
2023/12/22 22:49:13;;;;;;;;;;;7.70;99.90;;;;;;8420609;28;19925;-71
2023/12/22 22:53:15;;;;;;;;;;;7.70;99.90;;;;;;8440104;28;19924;-71
2023/12/22 22:57:17;;;;;;;;;;;7.70;99.90;;;;;;8424891;28;19930;-71
2023/12/22 23:01:19;;;;;;;;;;;7.70;99.90;;;;;;8433324;28;19970;-71
2023/12/22 23:05:21;;;;;;;;;;;7.70;99.90;;;;;;8420801;28;20050;-71
2023/12/22 23:09:22;;;;;;;;;;;7.70;99.90;;;;;;8453156;27;20332;-71
2023/12/22 23:13:24;;;;;;;;;;;7.80;99.90;;;;;;8434467;28;19928;-71
2023/12/22 23:17:27;;;;;;;;;;;7.80;99.90;;;;;;8424615;28;19928;-71
2023/12/22 23:21:28;;;;;;;;;;;7.80;99.90;;;;;;8435018;28;19959;-71
2023/12/22 23:25:30;;;;;;;;;;;7.80;99.90;;;;;;8433152;28;19929;-71
2023/12/22 23:29:32;;;;;;;;;;;7.80;99.90;;;;;;8424260;28;19931;-71
2023/12/22 23:33:35;;;;;;;;;;;7.80;99.90;;;;;;8446257;28;19923;-71
2023/12/22 23:37:37;;;;;;;;;;;7.80;99.90;;;;;;8437285;28;19932;-72
2023/12/22 23:41:38;;;;;;;;;;;7.90;99.90;;;;;;8429912;28;19924;-71
2023/12/22 23:45:40;;;;;;;;;;;7.90;99.90;;;;;;8436767;28;19924;-71
2023/12/22 23:49:42;;;;;;;;;;;7.90;99.90;;;;;;8421744;28;19935;-71
2023/12/22 23:53:44;;;;;;;;;;;7.90;99.90;;;;;;8432963;28;19968;-71
2023/12/22 23:57:45;;;;;;;;;;;7.90;99.90;;;;;;8434226;28;20363;-71
